createdAt,value
2019-02-02T00:02:00.377Z,140.53
2019-02-02T00:04:26.726Z,151.57
2019-02-02T00:06:53.216Z,171.37
2019-02-02T00:09:22.419Z,152.73
2019-02-02T00:12:04.207Z,149.53
2019-02-02T00:14:30.800Z,148.73
2019-02-02T00:17:15.598Z,138.70
2019-02-02T00:19:41.783Z,160.27
2019-02-02T00:22:11.775Z,153.07
2019-02-02T00:24:38.189Z,152.30
2019-02-02T00:27:04.474Z,134.57
2019-02-02T00:29:30.784Z,146.77
2019-02-02T00:31:57.160Z,151.77
2019-02-02T00:34:23.370Z,154.77
2019-02-02T00:36:49.841Z,154.10
2019-02-02T00:39:25.367Z,149.10
2019-02-02T00:41:51.556Z,136.87
2019-02-02T00:44:17.988Z,136.53
2019-02-02T00:46:44.560Z,135.70
2019-02-02T00:49:11.031Z,152.10
2019-02-02T00:51:40.581Z,126.40
2019-02-02T00:54:07.554Z,144.63
2019-02-02T00:56:52.150Z,119.43
2019-02-02T00:59:18.332Z,141.10
2019-02-02T01:01:44.989Z,121.93
2019-02-02T01:04:11.291Z,124.60
2019-02-02T01:06:37.537Z,142.57
2019-02-02T01:09:12.936Z,134.03
2019-02-02T01:11:54.588Z,136.63
2019-02-02T01:14:20.776Z,132.00
2019-02-02T01:16:46.972Z,121.80
2019-02-02T01:19:19.244Z,122.90
2019-02-02T01:21:51.747Z,112.90
2019-02-02T01:24:18.023Z,125.37
2019-02-02T01:26:44.547Z,124.00
2019-02-02T01:29:10.835Z,142.40
2019-02-02T01:31:37.006Z,129.70
2019-02-02T01:34:03.280Z,125.70
2019-02-02T01:36:29.456Z,138.83
2019-02-02T01:38:55.645Z,124.43
2019-02-02T01:41:24.512Z,130.30
2019-02-02T01:43:50.712Z,141.93
2019-02-02T01:46:16.907Z,131.53
2019-02-02T01:48:43.068Z,133.57
2019-02-02T01:51:09.252Z,118.53
2019-02-02T01:53:35.421Z,129.93
2019-02-02T01:56:01.682Z,122.87
2019-02-02T01:58:27.864Z,124.67
2019-02-02T02:00:54.111Z,123.73
2019-02-02T02:03:20.372Z,126.03
2019-02-02T02:05:46.658Z,121.47
2019-02-02T02:08:12.942Z,113.67
2019-02-02T02:10:39.209Z,123.13
2019-02-02T02:13:05.504Z,117.40
2019-02-02T02:15:31.707Z,120.87
2019-02-02T02:17:57.907Z,114.00
2019-02-02T02:20:24.552Z,124.60
2019-02-02T02:22:53.688Z,117.70
2019-02-02T02:25:20.026Z,133.83
2019-02-02T02:27:46.714Z,125.23
2019-02-02T02:30:17.292Z,130.07
2019-02-02T02:32:43.562Z,142.30
2019-02-02T02:35:09.932Z,122.27
2019-02-02T02:37:36.164Z,110.60
2019-02-02T02:40:11.588Z,111.17
2019-02-02T02:42:37.763Z,116.20
2019-02-02T02:45:06.834Z,122.70
2019-02-02T02:47:32.988Z,115.30
2019-02-02T02:49:59.141Z,116.67
2019-02-02T02:52:25.461Z,118.50
2019-02-02T02:54:51.699Z,106.97
2019-02-02T02:57:17.922Z,109.53
2019-02-02T02:59:44.071Z,120.17
2019-02-02T03:02:10.416Z,123.13
2019-02-02T03:04:36.574Z,104.13
2019-02-02T03:07:03.635Z,105.10
2019-02-02T03:09:32.341Z,106.50
2019-02-02T03:11:58.583Z,119.80
2019-02-02T03:14:24.825Z,98.70
2019-02-02T03:16:51.213Z,104.80
2019-02-02T03:19:17.465Z,108.77
2019-02-02T03:21:44.110Z,109.50
2019-02-02T03:24:28.752Z,114.90
2019-02-02T03:26:54.960Z,131.03
2019-02-02T03:29:21.216Z,113.10
2019-02-02T03:31:48.664Z,116.83
2019-02-02T03:34:17.766Z,107.20
2019-02-02T03:36:43.937Z,116.63
2019-02-02T03:39:12.716Z,124.60
2019-02-02T03:41:38.978Z,102.97
2019-02-02T03:44:05.135Z,115.00
2019-02-02T03:46:31.288Z,116.27
2019-02-02T03:48:57.552Z,119.03
2019-02-02T03:51:29.936Z,116.53
2019-02-02T03:54:08.213Z,117.00
2019-02-02T03:56:27.077Z,121.37
2019-02-02T03:59:05.690Z,106.27
2019-02-02T04:01:21.543Z,108.00
2019-02-02T04:03:47.752Z,121.77
2019-02-02T04:06:14.019Z,124.20
2019-02-02T04:08:40.218Z,123.10
2019-02-02T04:11:06.458Z,116.93
2019-02-02T04:13:32.636Z,129.23
2019-02-02T04:15:58.827Z,121.33
2019-02-02T04:18:25.089Z,110.60
2019-02-02T04:20:51.249Z,125.67
2019-02-02T04:23:17.420Z,127.63
2019-02-02T04:25:43.616Z,106.67
2019-02-02T04:28:09.812Z,125.40
2019-02-02T04:30:36.086Z,123.33
2019-02-02T04:33:02.360Z,119.17
2019-02-02T04:35:40.858Z,110.47
2019-02-02T04:38:22.172Z,116.80
2019-02-02T04:40:51.005Z,128.83
2019-02-02T04:43:17.229Z,124.47
2019-02-02T04:45:43.566Z,118.77
2019-02-02T04:48:09.754Z,120.97
2019-02-02T04:50:38.907Z,121.53
2019-02-02T04:53:05.073Z,123.47
2019-02-02T04:55:31.250Z,113.07
2019-02-02T04:58:00.216Z,120.17
2019-02-02T05:00:26.886Z,118.40
2019-02-02T05:02:55.823Z,114.90
2019-02-02T05:05:22.209Z,116.87
2019-02-02T05:07:48.571Z,116.70
2019-02-02T05:10:30.104Z,110.93
2019-02-02T05:12:56.291Z,110.27
2019-02-02T05:15:22.586Z,118.83
2019-02-02T05:17:48.936Z,116.73
2019-02-02T05:20:16.833Z,110.27
2019-02-02T05:22:46.660Z,104.83
2019-02-02T05:25:13.224Z,114.03
2019-02-02T05:27:39.421Z,127.77
2019-02-02T05:30:24.120Z,120.37
2019-02-02T05:32:53.040Z,103.20
2019-02-02T05:35:19.271Z,121.73
2019-02-02T05:37:45.516Z,116.60
2019-02-02T05:40:14.089Z,131.90
2019-02-02T05:42:40.250Z,111.27
2019-02-02T05:45:09.356Z,122.30
2019-02-02T05:47:35.527Z,123.17
2019-02-02T05:50:02.821Z,126.53
2019-02-02T05:52:28.981Z,111.47
2019-02-02T05:54:55.151Z,106.73
2019-02-02T05:57:21.429Z,115.43
2019-02-02T05:59:52.968Z,122.87
2019-02-02T06:02:18.623Z,119.17
2019-02-02T06:04:44.781Z,105.60
2019-02-02T06:07:11.024Z,117.10
2019-02-02T06:09:37.191Z,111.97
2019-02-02T06:12:03.450Z,120.83
2019-02-02T06:14:29.607Z,134.20
2019-02-02T06:16:55.789Z,112.67
2019-02-02T06:19:21.962Z,116.00
2019-02-02T06:21:48.117Z,111.23
2019-02-02T06:24:14.276Z,121.93
2019-02-02T06:26:40.412Z,111.17
2019-02-02T06:29:09.203Z,116.20
2019-02-02T06:31:35.376Z,120.10
2019-02-02T06:34:01.550Z,112.33
2019-02-02T06:36:27.725Z,115.03
2019-02-02T06:38:54.163Z,127.40
2019-02-02T06:41:20.331Z,112.97
2019-02-02T06:43:46.484Z,112.27
2019-02-02T06:46:12.645Z,119.83
2019-02-02T06:48:57.367Z,121.47
2019-02-02T06:51:23.535Z,127.50
2019-02-02T06:53:49.763Z,128.90
2019-02-02T06:56:15.924Z,122.30
2019-02-02T06:58:42.168Z,122.37
2019-02-02T07:01:08.332Z,124.97
2019-02-02T07:03:34.529Z,121.20
2019-02-02T07:06:00.728Z,127.97
2019-02-02T07:08:27.047Z,120.83
2019-02-02T07:10:53.211Z,132.83
2019-02-02T07:13:19.482Z,115.10
2019-02-02T07:15:45.891Z,128.30
2019-02-02T07:18:14.675Z,137.03
2019-02-02T07:20:40.880Z,118.47
2019-02-02T07:23:09.903Z,133.20
2019-02-02T07:25:36.067Z,132.10
2019-02-02T07:28:02.765Z,137.00
2019-02-02T07:30:31.603Z,127.83
2019-02-02T07:32:57.873Z,130.77
2019-02-02T07:35:24.029Z,144.40
2019-02-02T07:37:50.276Z,132.63
2019-02-02T07:40:17.762Z,144.13
2019-02-02T07:42:46.596Z,133.03
2019-02-02T07:45:16.066Z,127.43
2019-02-02T07:48:01.165Z,131.33
2019-02-02T07:50:27.620Z,142.73
2019-02-02T07:52:56.629Z,131.23
2019-02-02T07:55:22.951Z,142.67
2019-02-02T07:58:07.766Z,126.10
2019-02-02T08:00:40.717Z,144.77
2019-02-02T08:03:04.910Z,128.83
2019-02-02T08:05:33.913Z,150.73
2019-02-02T08:08:00.256Z,146.63
2019-02-02T08:10:29.192Z,138.30
2019-02-02T08:12:55.440Z,140.67
2019-02-02T08:15:31.941Z,147.67
2019-02-02T08:18:16.805Z,147.53
2019-02-02T08:20:42.944Z,149.77
2019-02-02T08:23:09.097Z,144.07
2019-02-02T08:25:35.239Z,157.97
2019-02-02T08:28:21.809Z,156.00
2019-02-02T08:30:52.414Z,158.87
2019-02-02T08:33:16.371Z,159.80
2019-02-02T08:35:42.562Z,184.83
2019-02-02T08:38:08.832Z,152.30
2019-02-02T08:40:35.001Z,181.67
2019-02-02T08:43:19.678Z,191.07
2019-02-02T08:45:45.863Z,198.87
2019-02-02T08:48:12.189Z,244.40
2019-02-02T08:50:38.409Z,202.60
2019-02-02T08:53:05.117Z,222.60
2019-02-02T08:55:34.158Z,216.47
2019-02-02T08:58:03.840Z,202.57
2019-02-02T09:00:32.778Z,220.27
2019-02-02T09:03:17.472Z,225.07
2019-02-02T09:05:43.680Z,213.93
2019-02-02T09:08:10.124Z,208.43
2019-02-02T09:10:36.431Z,212.73
2019-02-02T09:13:03.181Z,180.03
2019-02-02T09:15:47.936Z,194.03
2019-02-02T09:18:14.241Z,211.57
2019-02-02T09:20:40.382Z,189.03
2019-02-02T09:23:09.970Z,189.27
2019-02-02T09:25:54.672Z,184.80
2019-02-02T09:28:20.918Z,197.97
2019-02-02T09:30:47.072Z,223.63
2019-02-02T09:33:13.375Z,239.13
2019-02-02T09:35:39.594Z,228.20
2019-02-02T09:38:05.877Z,199.17
2019-02-02T09:40:34.936Z,197.20
2019-02-02T09:43:01.123Z,194.13
2019-02-02T09:45:27.363Z,171.03
2019-02-02T09:48:12.113Z,165.17
2019-02-02T09:50:38.344Z,152.73
2019-02-02T09:53:04.511Z,161.00
2019-02-02T09:55:30.662Z,147.53
2019-02-02T09:58:00.093Z,134.50
2019-02-02T10:00:31.111Z,149.37
2019-02-02T10:02:57.488Z,169.37
2019-02-02T10:05:42.297Z,151.10
2019-02-02T10:08:08.465Z,150.87
2019-02-02T10:10:34.625Z,160.17
2019-02-02T10:13:00.990Z,177.37
2019-02-02T10:15:27.274Z,180.03
2019-02-02T10:17:53.685Z,185.40
2019-02-02T10:20:28.230Z,162.27
2019-02-02T10:22:55.215Z,167.27
2019-02-02T10:25:39.939Z,176.67
2019-02-02T10:28:06.215Z,161.43
2019-02-02T10:30:39.767Z,151.00
2019-02-02T10:33:24.552Z,153.60
2019-02-02T10:35:50.756Z,154.40
2019-02-02T10:38:20.004Z,172.07
2019-02-02T10:40:48.765Z,144.13
2019-02-02T10:43:33.182Z,167.23
2019-02-02T10:45:59.437Z,156.20
2019-02-02T10:48:25.718Z,156.70
2019-02-02T10:50:51.962Z,164.63
2019-02-02T10:53:18.180Z,205.30
2019-02-02T10:55:44.372Z,182.07
2019-02-02T10:58:10.534Z,183.37
2019-02-02T11:00:38.104Z,173.83
2019-02-02T11:03:23.002Z,157.10
2019-02-02T11:05:51.938Z,179.33
2019-02-02T11:08:20.942Z,180.10
2019-02-02T11:10:47.630Z,190.90
2019-02-02T11:13:29.156Z,169.63
2019-02-02T11:15:55.564Z,164.93
2019-02-02T11:18:21.859Z,162.40
2019-02-02T11:20:50.872Z,180.23
2019-02-02T11:23:20.058Z,186.07
2019-02-02T11:25:49.091Z,184.80
2019-02-02T11:28:15.344Z,188.80
2019-02-02T11:30:41.833Z,182.13
2019-02-02T11:33:20.271Z,180.37
2019-02-02T11:36:04.897Z,200.37
2019-02-02T11:38:31.089Z,193.53
2019-02-02T11:40:57.344Z,183.27
2019-02-02T11:43:23.552Z,201.13
2019-02-02T11:45:52.789Z,178.80
2019-02-02T11:48:19.057Z,195.43
2019-02-02T11:50:45.245Z,190.30
2019-02-02T11:53:11.402Z,196.23
2019-02-02T11:55:37.882Z,230.90
2019-02-02T11:58:06.845Z,222.97
2019-02-02T12:00:36.122Z,203.57
2019-02-02T12:03:21.002Z,224.73
2019-02-02T12:05:47.439Z,215.67
2019-02-02T12:08:32.017Z,227.47
2019-02-02T12:11:01.599Z,206.97
2019-02-02T12:13:27.866Z,218.00
2019-02-02T12:15:54.070Z,220.67
2019-02-02T12:18:20.230Z,238.73
2019-02-02T12:20:46.442Z,247.03
2019-02-02T12:23:12.634Z,240.33
2019-02-02T12:25:41.757Z,235.60
2019-02-02T12:28:09.320Z,218.63
2019-02-02T12:30:35.911Z,271.33
2019-02-02T12:33:03.811Z,265.47
2019-02-02T12:35:30.423Z,245.07
2019-02-02T12:37:56.874Z,245.00
2019-02-02T12:40:26.783Z,252.40
2019-02-02T12:43:14.597Z,246.50
2019-02-02T12:45:43.987Z,248.73
2019-02-02T12:48:13.015Z,210.10
2019-02-02T12:50:39.454Z,246.60
2019-02-02T12:53:08.364Z,201.33
2019-02-02T12:55:34.595Z,231.10
2019-02-02T12:58:00.933Z,227.30
2019-02-02T13:00:27.234Z,245.13
2019-02-02T13:02:56.372Z,257.57
2019-02-02T13:05:40.953Z,222.60
2019-02-02T13:08:07.235Z,240.43
2019-02-02T13:10:34.699Z,243.60
2019-02-02T13:13:01.169Z,232.87
2019-02-02T13:15:45.766Z,233.57
2019-02-02T13:18:11.975Z,205.70
2019-02-02T13:20:38.157Z,218.00
2019-02-02T13:23:10.422Z,232.43
2019-02-02T13:25:36.614Z,213.87
2019-02-02T13:28:03.225Z,240.33
2019-02-02T13:30:32.311Z,207.63
2019-02-02T13:32:58.609Z,221.87
2019-02-02T13:35:43.272Z,217.53
2019-02-02T13:38:09.498Z,224.07
2019-02-02T13:40:35.911Z,205.30
2019-02-02T13:43:02.120Z,212.97
2019-02-02T13:45:28.306Z,188.30
2019-02-02T13:47:57.404Z,229.87
2019-02-02T13:50:23.783Z,221.13
2019-02-02T13:52:52.751Z,225.73
2019-02-02T13:55:21.643Z,198.00
2019-02-02T13:57:47.828Z,206.00
2019-02-02T14:00:22.847Z,239.93
2019-02-02T14:03:02.785Z,205.43
2019-02-02T14:05:26.983Z,268.43
2019-02-02T14:08:12.026Z,245.67
2019-02-02T14:10:40.850Z,252.67
2019-02-02T14:13:25.482Z,240.73
2019-02-02T14:15:54.393Z,254.57
2019-02-02T14:18:20.572Z,265.93
2019-02-02T14:20:47.246Z,279.13
2019-02-02T14:23:15.978Z,288.43
2019-02-02T14:25:42.130Z,282.23
2019-02-02T14:28:08.330Z,306.97
2019-02-02T14:30:34.506Z,269.73
2019-02-02T14:33:00.693Z,267.10
2019-02-02T14:35:27.231Z,271.37
2019-02-02T14:37:56.169Z,303.67
2019-02-02T14:40:22.354Z,283.77
2019-02-02T14:42:51.420Z,318.20
2019-02-02T14:45:22.698Z,291.77
2019-02-02T14:48:04.427Z,328.23
2019-02-02T14:50:32.130Z,298.80
2019-02-02T14:53:16.554Z,314.97
2019-02-02T14:56:00.239Z,282.43
2019-02-02T14:58:26.406Z,286.57
2019-02-02T15:00:53.945Z,323.23
2019-02-02T15:03:29.536Z,316.70
2019-02-02T15:05:55.783Z,338.00
2019-02-02T15:08:21.950Z,356.47
2019-02-02T15:10:48.183Z,373.80
2019-02-02T15:13:14.386Z,379.53
2019-02-02T15:15:40.646Z,360.93
2019-02-02T15:18:07.619Z,387.60
2019-02-02T15:20:34.975Z,368.83
2019-02-02T15:23:01.176Z,454.57
2019-02-02T15:25:27.348Z,435.87
2019-02-02T15:27:53.536Z,406.87
2019-02-02T15:30:22.398Z,429.63
2019-02-02T15:32:48.706Z,398.20
2019-02-02T15:35:15.135Z,412.53
2019-02-02T15:37:44.205Z,442.13
2019-02-02T15:40:14.249Z,408.20
2019-02-02T15:42:40.407Z,463.47
2019-02-02T15:45:09.860Z,422.33
2019-02-02T15:47:38.757Z,448.17
2019-02-02T15:50:08.582Z,411.03
2019-02-02T15:52:34.886Z,432.07
2019-02-02T15:55:01.101Z,455.80
2019-02-02T15:57:27.273Z,453.17
2019-02-02T15:59:53.438Z,462.10
2019-02-02T16:02:22.196Z,501.53
2019-02-02T16:04:48.419Z,445.90
2019-02-02T16:07:14.760Z,447.00
2019-02-02T16:09:43.634Z,490.87
2019-02-02T16:12:09.867Z,484.90
2019-02-02T16:14:36.066Z,488.50
2019-02-02T16:17:02.508Z,460.77
2019-02-02T16:19:31.302Z,455.23
2019-02-02T16:21:57.473Z,488.83
2019-02-02T16:24:23.683Z,496.20
2019-02-02T16:26:52.475Z,490.20
2019-02-02T16:29:18.697Z,459.37
2019-02-02T16:31:44.880Z,458.03
2019-02-02T16:34:11.095Z,471.20
2019-02-02T16:36:37.337Z,464.03
2019-02-02T16:39:05.920Z,484.37
2019-02-02T16:41:35.647Z,459.23
2019-02-02T16:44:01.892Z,465.93
2019-02-02T16:46:28.236Z,473.77
2019-02-02T16:48:54.454Z,508.23
2019-02-02T16:51:20.680Z,579.10
2019-02-02T16:53:49.627Z,491.80
2019-02-02T16:56:15.790Z,492.47
2019-02-02T16:58:41.997Z,540.77
2019-02-02T17:01:11.013Z,472.53
2019-02-02T17:03:37.499Z,505.47
2019-02-02T17:06:22.555Z,507.47
2019-02-02T17:09:07.459Z,476.40
2019-02-02T17:11:33.721Z,488.03
2019-02-02T17:14:04.053Z,491.27
2019-02-02T17:16:45.751Z,518.50
2019-02-02T17:19:12.021Z,506.10
2019-02-02T17:21:56.568Z,482.13
2019-02-02T17:24:22.880Z,557.73
2019-02-02T17:26:49.048Z,496.30
2019-02-02T17:29:15.242Z,517.30
2019-02-02T17:31:41.452Z,497.43
2019-02-02T17:34:07.655Z,521.90
2019-02-02T17:36:33.920Z,521.57
2019-02-02T17:39:04.594Z,519.00
2019-02-02T17:41:31.008Z,541.27
2019-02-02T17:43:57.185Z,538.60
2019-02-02T17:46:23.498Z,546.00
2019-02-02T17:48:49.784Z,539.70
2019-02-02T17:51:18.740Z,518.63
2019-02-02T17:53:44.913Z,505.80
2019-02-02T17:56:11.112Z,501.87
2019-02-02T17:58:39.630Z,532.77
2019-02-02T18:01:08.345Z,537.17
2019-02-02T18:03:34.521Z,555.20
2019-02-02T18:06:00.707Z,534.67
2019-02-02T18:08:26.890Z,533.07
2019-02-02T18:10:53.187Z,548.13
2019-02-02T18:13:21.978Z,537.47
2019-02-02T18:15:48.165Z,518.20
2019-02-02T18:18:14.361Z,519.30
2019-02-02T18:20:40.526Z,565.57
2019-02-02T18:23:06.786Z,548.47
2019-02-02T18:25:32.982Z,547.17
2019-02-02T18:27:59.230Z,519.93
2019-02-02T18:30:28.459Z,490.40
2019-02-02T18:32:54.747Z,516.27
2019-02-02T18:35:21.030Z,551.17
2019-02-02T18:37:49.980Z,513.53
2019-02-02T18:40:22.943Z,574.63
2019-02-02T18:42:49.178Z,546.97
2019-02-02T18:45:17.950Z,543.33
2019-02-02T18:47:46.650Z,587.60
2019-02-02T18:50:16.694Z,554.93
2019-02-02T18:52:47.494Z,543.13
2019-02-02T18:55:19.559Z,574.53
2019-02-02T18:57:45.920Z,541.17
2019-02-02T19:00:14.970Z,564.20
2019-02-02T19:02:41.126Z,598.60
2019-02-02T19:05:10.887Z,566.73
2019-02-02T19:07:56.096Z,568.70
2019-02-02T19:10:31.642Z,548.67
2019-02-02T19:13:16.526Z,617.07
2019-02-02T19:16:02.031Z,543.90
2019-02-02T19:18:46.355Z,525.13
2019-02-02T19:21:31.608Z,570.03
2019-02-02T19:23:57.856Z,544.53
2019-02-02T19:26:27.078Z,573.70
2019-02-02T19:28:56.147Z,546.63
2019-02-02T19:31:22.348Z,554.10
2019-02-02T19:33:48.626Z,591.87
2019-02-02T19:36:14.808Z,572.20
2019-02-02T19:38:41.058Z,560.10
2019-02-02T19:41:07.249Z,548.87
2019-02-02T19:43:33.381Z,597.67
2019-02-02T19:45:59.736Z,559.03
2019-02-02T19:48:25.874Z,548.13
2019-02-02T19:50:52.050Z,545.00
2019-02-02T19:53:18.421Z,566.97
2019-02-02T19:55:47.250Z,548.80
2019-02-02T19:58:13.494Z,593.10
2019-02-02T20:00:39.715Z,552.73
2019-02-02T20:03:05.931Z,546.17
2019-02-02T20:05:51.122Z,578.87
2019-02-02T20:08:20.285Z,534.13
2019-02-02T20:10:46.606Z,521.60
2019-02-02T20:13:31.937Z,541.63
2019-02-02T20:16:17.075Z,539.00
2019-02-02T20:19:02.251Z,497.57
2019-02-02T20:21:31.378Z,534.47
2019-02-02T20:24:00.503Z,541.17
2019-02-02T20:26:26.773Z,502.90
2019-02-02T20:28:52.961Z,526.40
2019-02-02T20:31:21.787Z,531.87
2019-02-02T20:33:47.981Z,522.27
2019-02-02T20:36:14.145Z,578.70
2019-02-02T20:38:40.637Z,493.93
2019-02-02T20:41:25.340Z,539.20
2019-02-02T20:43:51.601Z,531.50
2019-02-02T20:46:17.898Z,549.50
2019-02-02T20:48:44.118Z,527.07
2019-02-02T20:51:10.351Z,551.83
2019-02-02T20:53:39.347Z,515.30
2019-02-02T20:56:05.774Z,525.33
2019-02-02T20:58:34.563Z,518.83
2019-02-02T21:01:00.957Z,528.17
2019-02-02T21:03:33.657Z,524.10
2019-02-02T21:05:59.899Z,513.17
2019-02-02T21:08:26.175Z,535.90
2019-02-02T21:10:52.358Z,528.67
2019-02-02T21:13:18.586Z,537.73
2019-02-02T21:15:44.827Z,525.47
2019-02-02T21:18:11.932Z,541.83
2019-02-02T21:20:38.535Z,501.37
2019-02-02T21:23:04.766Z,473.70
2019-02-02T21:25:31.159Z,510.70
2019-02-02T21:28:16.126Z,503.23
2019-02-02T21:30:42.343Z,488.17
2019-02-02T21:33:11.158Z,541.07
2019-02-02T21:35:39.889Z,525.27
2019-02-02T21:38:06.155Z,554.23
2019-02-02T21:40:33.335Z,537.97
2019-02-02T21:42:59.583Z,537.80
2019-02-02T21:45:44.216Z,505.20
2019-02-02T21:48:10.550Z,532.07
2019-02-02T21:50:36.708Z,469.07
2019-02-02T21:53:21.914Z,497.33
2019-02-02T21:55:51.315Z,526.77
2019-02-02T21:58:20.255Z,473.80
2019-02-02T22:00:49.062Z,482.40
2019-02-02T22:03:15.253Z,518.93
2019-02-02T22:05:41.451Z,396.43
2019-02-02T22:08:08.014Z,448.70
2019-02-02T22:10:36.877Z,430.23
2019-02-02T22:13:04.015Z,461.40
2019-02-02T22:15:30.180Z,451.13
2019-02-02T22:17:56.471Z,454.80
2019-02-02T22:20:22.632Z,398.53
2019-02-02T22:22:49.035Z,382.10
2019-02-02T22:25:33.829Z,489.13
2019-02-02T22:28:00.048Z,446.43
2019-02-02T22:30:34.476Z,391.87
2019-02-02T22:33:00.698Z,476.57
2019-02-02T22:35:29.511Z,466.43
2019-02-02T22:37:56.270Z,494.43
2019-02-02T22:40:24.727Z,479.90
2019-02-02T22:42:50.922Z,486.40
2019-02-02T22:45:18.627Z,520.67
2019-02-02T22:47:44.914Z,526.53
2019-02-02T22:50:17.104Z,503.87
2019-02-02T22:52:43.791Z,484.23
2019-02-02T22:55:12.042Z,488.87
2019-02-02T22:57:41.161Z,506.67
2019-02-02T23:00:14.916Z,491.00
2019-02-02T23:02:41.099Z,489.03
2019-02-02T23:05:15.503Z,461.43
2019-02-02T23:07:45.641Z,497.37
2019-02-02T23:10:18.436Z,464.07
2019-02-02T23:13:00.185Z,584.90
2019-02-02T23:15:51.796Z,427.00
2019-02-02T23:18:20.832Z,425.87
2019-02-02T23:20:47.105Z,503.87
2019-02-02T23:23:16.165Z,494.53
2019-02-02T23:25:57.774Z,538.57
2019-02-02T23:28:23.943Z,477.17
2019-02-02T23:30:50.197Z,484.30
2019-02-02T23:33:19.176Z,471.70
2019-02-02T23:35:45.427Z,494.53
2019-02-02T23:38:12.175Z,409.27
2019-02-02T23:40:38.411Z,492.80
2019-02-02T23:43:04.709Z,547.83
2019-02-02T23:45:30.882Z,490.30
2019-02-02T23:47:57.094Z,450.17
2019-02-02T23:50:23.277Z,411.87
2019-02-02T23:52:49.432Z,471.30
2019-02-02T23:55:21.940Z,412.00
2019-02-02T23:57:48.465Z,485.20
